createdAt,value
2023-04-18T00:01:29.809Z,2.60
2023-04-18T00:03:58.066Z,1.90
2023-04-18T00:06:26.692Z,2.00
2023-04-18T00:08:54.720Z,1.90
2023-04-18T00:11:22.993Z,2.20
2023-04-18T00:13:51.009Z,2.10
2023-04-18T00:16:19.099Z,2.10
2023-04-18T00:18:48.196Z,1.80
2023-04-18T00:21:16.848Z,2.20
2023-04-18T00:23:46.199Z,1.90
2023-04-18T00:26:14.304Z,1.80
2023-04-18T00:28:42.846Z,2.20
2023-04-18T00:31:11.963Z,2.10
2023-04-18T00:33:39.961Z,2.10
2023-04-18T00:36:08.207Z,2.00
2023-04-18T00:38:36.469Z,2.60
2023-04-18T00:41:04.528Z,2.40
2023-04-18T00:43:35.070Z,2.80
2023-04-18T00:46:03.457Z,2.70
2023-04-18T00:48:31.608Z,2.40
2023-04-18T00:51:00.429Z,2.60
2023-04-18T00:53:28.807Z,2.70
2023-04-18T00:55:56.979Z,2.60
2023-04-18T00:58:25.719Z,2.90
2023-04-18T01:00:54.735Z,2.50
2023-04-18T01:03:24.183Z,2.80
2023-04-18T01:05:53.881Z,3.00
2023-04-18T01:08:22.016Z,2.70
2023-04-18T01:10:50.014Z,3.00
2023-04-18T01:13:19.685Z,2.60
2023-04-18T01:15:49.275Z,2.80
2023-04-18T01:18:17.914Z,2.70
2023-04-18T01:20:49.829Z,2.70
2023-04-18T01:23:18.303Z,2.90
2023-04-18T01:25:47.014Z,2.90
2023-04-18T01:28:15.877Z,2.80
2023-04-18T01:30:44.033Z,3.00
2023-04-18T01:33:12.315Z,3.40
2023-04-18T01:35:40.852Z,2.90
2023-04-18T01:38:08.908Z,3.20
2023-04-18T01:40:36.902Z,3.00
2023-04-18T01:43:05.281Z,2.90
2023-04-18T01:45:33.332Z,2.90
2023-04-18T01:48:03.401Z,2.70
2023-04-18T01:50:31.541Z,2.70
2023-04-18T01:52:59.600Z,2.80
2023-04-18T01:55:27.705Z,2.70
2023-04-18T01:57:56.137Z,2.70
2023-04-18T02:00:24.653Z,2.60
2023-04-18T02:02:52.890Z,2.60
2023-04-18T02:05:22.029Z,2.50
2023-04-18T02:07:50.387Z,2.00
2023-04-18T02:10:19.548Z,2.60
2023-04-18T02:12:47.841Z,2.30
2023-04-18T02:15:15.875Z,2.70
2023-04-18T02:17:43.979Z,2.80
2023-04-18T02:20:13.403Z,2.60
2023-04-18T02:22:41.877Z,2.90
2023-04-18T02:25:11.406Z,2.50
2023-04-18T02:27:40.398Z,2.50
2023-04-18T02:30:09.386Z,2.50
2023-04-18T02:32:37.862Z,2.30
2023-04-18T02:35:06.549Z,2.40
2023-04-18T02:37:34.716Z,2.70
2023-04-18T02:40:05.134Z,2.50
2023-04-18T02:42:33.499Z,2.50
2023-04-18T02:45:02.684Z,2.60
2023-04-18T02:47:37.596Z,2.50
2023-04-18T02:50:11.811Z,2.00
2023-04-18T02:52:40.073Z,2.30
2023-04-18T02:55:09.549Z,2.30
2023-04-18T02:57:40.214Z,2.20
2023-04-18T03:00:43.542Z,2.50
2023-04-18T03:03:30.916Z,2.30
2023-04-18T03:06:14.601Z,2.30
2023-04-18T03:08:44.482Z,2.60
2023-04-18T03:11:12.666Z,2.60
2023-04-18T03:13:41.073Z,2.50
2023-04-18T03:16:09.691Z,2.70
2023-04-18T03:18:38.257Z,2.80
2023-04-18T03:21:07.302Z,2.90
2023-04-18T03:23:35.759Z,2.40
2023-04-18T03:26:08.105Z,2.60
2023-04-18T03:28:38.188Z,2.70
2023-04-18T03:31:08.019Z,2.70
2023-04-18T03:33:39.938Z,2.50
2023-04-18T03:36:15.129Z,2.40
2023-04-18T03:38:46.934Z,2.30
2023-04-18T03:41:17.343Z,2.00
2023-04-18T03:43:47.297Z,2.40
2023-04-18T03:46:17.476Z,2.40
2023-04-18T03:48:47.794Z,2.30
2023-04-18T03:51:19.653Z,2.40
2023-04-18T03:53:50.011Z,2.50
2023-04-18T03:56:22.007Z,2.70
2023-04-18T03:58:55.495Z,2.30
2023-04-18T04:01:25.665Z,2.20
2023-04-18T04:03:55.706Z,2.40
2023-04-18T04:06:27.081Z,2.30
2023-04-18T04:08:57.768Z,2.40
2023-04-18T04:11:29.083Z,2.20
2023-04-18T04:14:00.656Z,2.00
2023-04-18T04:16:36.077Z,2.20
2023-04-18T04:19:06.851Z,2.10
2023-04-18T04:21:43.080Z,2.10
2023-04-18T04:24:16.661Z,2.00
2023-04-18T04:26:50.846Z,2.40
2023-04-18T04:36:33.548Z,2.30
2023-04-18T04:39:04.351Z,2.30
2023-04-18T04:41:47.480Z,2.50
2023-04-18T04:44:17.798Z,2.40
2023-04-18T04:46:48.128Z,3.60
2023-04-18T04:49:19.778Z,2.80
2023-04-18T04:51:47.953Z,2.50
2023-04-18T04:54:16.700Z,2.50
2023-04-18T04:56:45.144Z,2.50
2023-04-18T04:59:14.382Z,2.50
2023-04-18T05:01:47.143Z,2.90
2023-04-18T05:04:17.372Z,3.20
2023-04-18T05:06:46.321Z,2.70
2023-04-18T05:09:15.314Z,2.70
2023-04-18T05:11:44.095Z,2.30
2023-04-18T05:14:13.274Z,3.00
2023-04-18T05:16:48.837Z,2.80
2023-04-18T05:19:22.040Z,2.90
2023-04-18T05:21:50.145Z,3.20
2023-04-18T05:24:19.121Z,2.90
2023-04-18T05:26:47.270Z,3.20
2023-04-18T05:29:15.492Z,2.90
2023-04-18T05:31:44.033Z,3.30
2023-04-18T05:34:12.429Z,2.90
2023-04-18T05:36:41.324Z,3.00
2023-04-18T05:39:09.680Z,3.10
2023-04-18T05:41:37.954Z,3.60
2023-04-18T05:44:06.545Z,3.80
2023-04-18T05:46:35.029Z,3.80
2023-04-18T05:49:04.019Z,3.90
2023-04-18T05:51:32.274Z,3.70
2023-04-18T05:54:06.193Z,3.30
2023-04-18T05:56:36.360Z,3.70
2023-04-18T05:59:14.195Z,3.50
2023-04-18T06:01:43.808Z,3.20
2023-04-18T06:04:12.159Z,3.20
2023-04-18T06:06:41.200Z,3.40
2023-04-18T06:09:09.507Z,3.30
2023-04-18T06:11:37.664Z,2.90
2023-04-18T06:14:05.965Z,3.00
2023-04-18T06:16:36.678Z,3.30
2023-04-18T06:19:05.460Z,2.90
2023-04-18T06:21:33.534Z,3.40
2023-04-18T06:24:01.684Z,3.40
2023-04-18T06:26:32.106Z,2.90
2023-04-18T06:29:00.313Z,3.10
2023-04-18T06:31:28.422Z,3.10
2023-04-18T06:33:56.907Z,2.80
2023-04-18T06:36:26.948Z,2.80
2023-04-18T06:38:55.012Z,3.00
2023-04-18T06:41:23.011Z,3.00
2023-04-18T06:44:02.764Z,3.30
2023-04-18T06:46:32.947Z,3.10
2023-04-18T06:49:01.009Z,3.20
2023-04-18T06:51:32.063Z,3.10
2023-04-18T06:54:02.182Z,2.20
2023-04-18T06:56:33.474Z,3.30
2023-04-18T06:59:03.110Z,3.90
2023-04-18T07:01:33.218Z,3.90
2023-04-18T07:04:01.435Z,3.60
2023-04-18T07:09:26.684Z,4.10
2023-04-18T07:11:55.148Z,4.10
2023-04-18T07:14:24.107Z,3.40
2023-04-18T07:16:52.364Z,4.10
2023-04-18T07:19:20.526Z,3.60
2023-04-18T07:21:48.679Z,3.30
2023-04-18T07:24:16.908Z,3.50
2023-04-18T07:26:45.349Z,3.70
2023-04-18T07:29:14.456Z,3.80
2023-04-18T07:31:42.975Z,3.60
2023-04-18T07:34:11.599Z,3.80
2023-04-18T07:36:40.802Z,3.60
2023-04-18T07:39:09.095Z,4.10
2023-04-18T07:41:37.290Z,5.00
2023-04-18T07:44:05.836Z,4.90
2023-04-18T07:46:34.108Z,4.70
2023-04-18T07:49:02.484Z,4.00
2023-04-18T07:51:35.072Z,4.20
2023-04-18T07:54:03.930Z,3.20
2023-04-18T07:56:58.128Z,3.60
2023-04-18T07:59:27.388Z,3.70
2023-04-18T08:01:55.503Z,3.50
2023-04-18T08:04:24.153Z,4.10
2023-04-18T08:06:52.678Z,3.60
2023-04-18T08:09:21.915Z,4.10
2023-04-18T08:11:50.037Z,3.60
2023-04-18T08:14:18.104Z,3.80
2023-04-18T08:16:46.397Z,3.50
2023-04-18T08:19:15.333Z,3.50
2023-04-18T08:21:43.876Z,2.90
2023-04-18T08:24:12.294Z,2.90
2023-04-18T08:26:40.471Z,3.20
2023-04-18T08:29:08.916Z,3.00
2023-04-18T08:31:40.219Z,2.50
2023-04-18T08:34:08.455Z,4.10
2023-04-18T08:36:36.850Z,3.00
2023-04-18T08:39:05.242Z,3.20
2023-04-18T08:41:36.197Z,3.30
2023-04-18T08:44:04.210Z,3.20
2023-04-18T08:46:36.181Z,3.10
2023-04-18T08:49:05.106Z,3.30
2023-04-18T08:51:34.108Z,3.10
2023-04-18T08:54:04.790Z,2.90
2023-04-18T08:56:33.333Z,3.10
2023-04-18T08:59:01.308Z,2.90
2023-04-18T09:02:06.542Z,3.10
2023-04-18T09:04:35.919Z,2.70
2023-04-18T09:07:07.580Z,3.20
2023-04-18T09:09:52.713Z,3.20
2023-04-18T09:12:23.233Z,3.40
2023-04-18T09:14:58.411Z,2.70
2023-04-18T09:17:37.879Z,3.10
2023-04-18T09:20:07.125Z,3.00
2023-04-18T09:22:52.381Z,3.40
2023-04-18T09:25:46.551Z,3.20
2023-04-18T09:28:23.375Z,3.40
2023-04-18T09:30:52.550Z,2.90
2023-04-18T09:33:29.332Z,2.70
2023-04-18T09:36:18.781Z,2.60
2023-04-18T09:38:47.706Z,3.30
2023-04-18T09:41:19.839Z,3.10
2023-04-18T09:43:49.041Z,2.90
2023-04-18T09:46:22.735Z,3.00
2023-04-18T09:48:50.944Z,2.70
2023-04-18T09:51:18.950Z,2.90
2023-04-18T09:53:50.400Z,2.90
2023-04-18T09:56:28.661Z,2.80
2023-04-18T09:59:08.801Z,2.50
2023-04-18T10:01:37.136Z,3.10
2023-04-18T10:04:06.935Z,2.60
2023-04-18T10:06:38.581Z,2.80
2023-04-18T10:09:07.762Z,2.80
2023-04-18T10:11:36.519Z,2.50
2023-04-18T10:14:07.112Z,3.10
2023-04-18T10:16:36.435Z,2.80
2023-04-18T10:19:44.329Z,2.40
2023-04-18T10:22:13.375Z,2.90
2023-04-18T10:24:49.998Z,2.70
2023-04-18T10:27:19.670Z,2.90
2023-04-18T10:29:54.546Z,2.90
2023-04-18T10:32:23.540Z,2.60
2023-04-18T10:34:53.925Z,3.10
2023-04-18T10:37:22.193Z,3.40
2023-04-18T10:39:57.370Z,3.10
2023-04-18T10:42:47.491Z,3.00
2023-04-18T10:45:22.452Z,3.00
2023-04-18T10:47:50.928Z,2.80
2023-04-18T10:50:19.153Z,3.80
2023-04-18T10:52:47.134Z,3.40
2023-04-18T10:55:23.102Z,2.90
2023-04-18T10:57:51.605Z,3.10
2023-04-18T11:00:21.855Z,2.90
2023-04-18T11:02:57.832Z,2.70
2023-04-18T11:05:27.517Z,2.90
2023-04-18T11:07:55.703Z,3.00
2023-04-18T11:10:26.624Z,3.00
2023-04-18T11:12:54.942Z,3.10
2023-04-18T11:15:24.304Z,3.20
2023-04-18T11:18:03.074Z,2.80
2023-04-18T11:20:47.545Z,2.70
2023-04-18T11:23:17.454Z,3.20
2023-04-18T11:25:45.482Z,3.20
2023-04-18T11:28:13.752Z,3.30
2023-04-18T11:30:42.015Z,3.40
2023-04-18T11:33:11.880Z,3.00
2023-04-18T11:35:44.701Z,2.80
2023-04-18T11:38:14.639Z,3.50
2023-04-18T11:40:49.860Z,3.10
2023-04-18T11:43:25.213Z,3.50
2023-04-18T11:45:57.920Z,3.10
2023-04-18T11:48:40.276Z,2.80
2023-04-18T11:51:09.826Z,3.30
2023-04-18T11:53:38.999Z,3.30
2023-04-18T11:56:07.690Z,3.00
2023-04-18T11:58:36.562Z,2.90
2023-04-18T12:01:17.999Z,3.10
2023-04-18T12:04:08.176Z,3.10
2023-04-18T12:06:51.150Z,2.80
2023-04-18T12:09:21.429Z,3.60
2023-04-18T12:11:59.682Z,3.00
2023-04-18T12:14:30.349Z,3.20
2023-04-18T12:16:58.368Z,2.60
2023-04-18T12:19:28.180Z,3.70
2023-04-18T12:22:09.920Z,3.60
2023-04-18T12:24:38.277Z,3.40
2023-04-18T12:27:06.620Z,2.50
2023-04-18T12:29:35.371Z,2.70
2023-04-18T12:32:03.609Z,2.60
2023-04-18T12:34:31.922Z,2.70
2023-04-18T12:37:00.396Z,2.50
2023-04-18T12:39:28.774Z,2.50
2023-04-18T12:41:57.096Z,2.40
2023-04-18T12:44:25.753Z,2.60
2023-04-18T12:46:54.108Z,2.90
2023-04-18T12:49:22.825Z,3.20
2023-04-18T12:51:51.067Z,3.30
2023-04-18T12:54:19.960Z,2.30
2023-04-18T12:56:47.987Z,2.80
2023-04-18T12:59:16.509Z,2.40
2023-04-18T13:01:44.835Z,2.20
2023-04-18T13:04:13.532Z,2.60
2023-04-18T13:06:41.961Z,2.10
2023-04-18T13:09:10.558Z,2.40
2023-04-18T13:11:38.730Z,2.10
2023-04-18T13:14:07.162Z,2.00
2023-04-18T13:16:35.455Z,1.80
2023-04-18T13:19:03.838Z,2.30
2023-04-18T13:21:32.177Z,2.30
2023-04-18T13:24:01.029Z,2.60
2023-04-18T13:26:30.106Z,2.10
2023-04-18T13:28:58.171Z,1.80
2023-04-18T13:31:26.152Z,2.20
2023-04-18T13:33:57.963Z,2.30
2023-04-18T13:36:28.625Z,1.70
2023-04-18T13:38:57.264Z,2.50
2023-04-18T13:41:25.296Z,2.00
2023-04-18T13:43:53.872Z,1.80
2023-04-18T13:46:23.461Z,1.90
2023-04-18T13:48:51.973Z,1.70
2023-04-18T13:51:20.453Z,1.70
2023-04-18T13:53:49.178Z,2.00
2023-04-18T13:56:24.156Z,2.00
2023-04-18T13:58:52.828Z,1.90
2023-04-18T14:01:21.143Z,1.60
2023-04-18T14:03:52.680Z,2.60
2023-04-18T14:06:21.048Z,1.70
2023-04-18T14:08:51.281Z,1.80
2023-04-18T14:11:20.312Z,1.80
2023-04-18T14:13:48.945Z,1.40
2023-04-18T14:16:19.352Z,1.60
2023-04-18T14:18:47.803Z,1.70
2023-04-18T14:21:16.416Z,1.70
2023-04-18T14:23:44.724Z,1.50
2023-04-18T14:26:13.228Z,1.80
2023-04-18T14:28:42.321Z,1.60
2023-04-18T14:31:11.415Z,1.80
2023-04-18T14:33:40.222Z,1.70
2023-04-18T14:36:09.424Z,1.60
2023-04-18T14:38:37.576Z,1.50
2023-04-18T14:41:05.866Z,1.70
2023-04-18T14:43:33.818Z,1.50
2023-04-18T14:46:02.228Z,1.70
2023-04-18T14:48:30.479Z,4.80
2023-04-18T14:50:59.357Z,1.80
2023-04-18T14:53:27.885Z,1.60
2023-04-18T14:55:56.788Z,1.40
2023-04-18T14:58:24.919Z,1.60
2023-04-18T15:00:52.994Z,1.60
2023-04-18T15:03:21.923Z,1.60
2023-04-18T15:05:50.262Z,1.40
2023-04-18T15:08:18.334Z,1.40
2023-04-18T15:10:47.651Z,1.50
2023-04-18T15:13:16.203Z,1.50
2023-04-18T15:15:51.729Z,1.40
2023-04-18T15:18:20.256Z,1.30
2023-04-18T15:20:48.657Z,1.40
2023-04-18T15:23:17.077Z,1.70
2023-04-18T15:25:45.897Z,1.60
2023-04-18T15:28:14.378Z,1.60
2023-04-18T15:30:42.663Z,1.60
2023-04-18T15:33:11.992Z,3.50
2023-04-18T15:35:40.029Z,2.20
2023-04-18T15:38:08.511Z,1.80
2023-04-18T15:40:38.141Z,1.90
2023-04-18T15:43:06.533Z,1.80
2023-04-18T15:45:36.243Z,1.80
2023-04-18T15:48:05.536Z,1.70
2023-04-18T15:50:34.190Z,1.90
2023-04-18T15:53:02.529Z,1.80
2023-04-18T15:55:30.940Z,1.90
2023-04-18T15:57:59.177Z,2.00
2023-04-18T16:00:27.902Z,1.90
2023-04-18T16:02:56.620Z,1.90
2023-04-18T16:05:25.180Z,2.00
2023-04-18T16:07:56.414Z,2.00
2023-04-18T16:10:25.031Z,1.80
2023-04-18T16:12:53.742Z,1.80
2023-04-18T16:15:21.866Z,2.30
2023-04-18T16:17:50.123Z,2.10
2023-04-18T16:20:19.354Z,1.80
2023-04-18T16:22:48.032Z,1.80
2023-04-18T16:25:16.089Z,1.90
2023-04-18T16:27:44.485Z,2.00
2023-04-18T16:30:13.183Z,1.80
2023-04-18T16:32:41.632Z,2.50
2023-04-18T16:35:10.983Z,2.00
2023-04-18T16:37:39.716Z,2.20
2023-04-18T16:40:10.228Z,2.40
2023-04-18T16:42:38.578Z,2.00
2023-04-18T16:45:07.741Z,2.00
2023-04-18T16:47:36.711Z,2.50
2023-04-18T16:50:08.444Z,2.30
2023-04-18T16:52:36.872Z,2.30
2023-04-18T16:55:05.865Z,2.30
2023-04-18T16:57:34.146Z,2.10
2023-04-18T17:00:04.476Z,2.30
2023-04-18T17:02:33.689Z,2.60
2023-04-18T17:05:02.361Z,2.70
2023-04-18T17:07:31.203Z,2.70
2023-04-18T17:09:59.205Z,2.90
2023-04-18T17:12:27.307Z,2.50
2023-04-18T17:14:55.777Z,2.60
2023-04-18T17:17:26.746Z,2.70
2023-04-18T17:19:57.650Z,2.80
2023-04-18T17:22:26.550Z,2.70
2023-04-18T17:24:54.949Z,2.50
2023-04-18T17:27:23.483Z,3.60
2023-04-18T17:29:51.785Z,2.70
2023-04-18T17:32:20.148Z,4.00
2023-04-18T17:34:49.263Z,3.60
2023-04-18T17:37:17.468Z,3.10
2023-04-18T17:39:45.963Z,3.60
2023-04-18T17:42:14.275Z,3.10
2023-04-18T17:44:42.914Z,3.10
2023-04-18T17:47:11.341Z,3.40
2023-04-18T17:49:40.223Z,3.80
2023-04-18T17:52:08.522Z,3.70
2023-04-18T17:54:37.604Z,3.80
2023-04-18T17:57:06.388Z,4.60
2023-04-18T17:59:37.746Z,5.00
2023-04-18T18:02:06.246Z,6.30
2023-04-18T18:04:35.183Z,7.30
2023-04-18T18:07:04.542Z,9.00
2023-04-18T18:09:34.408Z,10.00
2023-04-18T18:12:03.785Z,10.80
2023-04-18T18:14:32.360Z,10.40
2023-04-18T18:17:00.864Z,9.10
2023-04-18T18:19:29.485Z,9.00
2023-04-18T18:21:57.510Z,8.70
2023-04-18T18:24:26.999Z,8.40
2023-04-18T18:26:55.192Z,8.70
2023-04-18T18:29:23.484Z,8.10
2023-04-18T18:31:51.541Z,7.30
2023-04-18T18:34:21.395Z,7.50
2023-04-18T18:36:50.899Z,6.80
2023-04-18T18:39:19.071Z,6.80
2023-04-18T18:41:47.225Z,7.00
2023-04-18T18:44:15.942Z,6.80
2023-04-18T18:46:44.194Z,7.30
2023-04-18T18:49:13.371Z,7.20
2023-04-18T18:51:41.832Z,6.80
2023-04-18T18:54:10.100Z,6.90
2023-04-18T18:56:40.181Z,6.60
2023-04-18T18:59:09.112Z,7.00
2023-04-18T19:01:38.954Z,5.90
2023-04-18T19:04:07.854Z,6.10
2023-04-18T19:06:36.444Z,5.60
2023-04-18T19:09:05.539Z,5.50
2023-04-18T19:11:34.322Z,5.30
2023-04-18T19:14:03.042Z,5.60
2023-04-18T19:16:31.359Z,4.90
2023-04-18T19:18:59.793Z,4.40
2023-04-18T19:21:28.057Z,5.30
2023-04-18T19:23:56.171Z,5.90
2023-04-18T19:26:24.465Z,8.50
2023-04-18T19:28:53.086Z,12.20
2023-04-18T19:31:21.638Z,6.60
2023-04-18T19:33:50.153Z,5.30
2023-04-18T19:36:19.167Z,8.10
2023-04-18T19:38:47.443Z,5.50
2023-04-18T19:41:15.650Z,4.70
2023-04-18T19:43:44.229Z,4.30
2023-04-18T19:46:12.511Z,4.60
2023-04-18T19:48:40.847Z,4.10
2023-04-18T19:51:09.277Z,4.30
2023-04-18T19:53:39.040Z,3.80
2023-04-18T19:56:10.878Z,3.80
2023-04-18T19:58:45.292Z,3.90
2023-04-18T20:01:14.395Z,3.90
2023-04-18T20:03:42.879Z,4.20
2023-04-18T20:06:12.829Z,4.10
2023-04-18T20:08:45.926Z,3.80
2023-04-18T20:11:15.634Z,3.70
2023-04-18T20:13:44.409Z,4.00
2023-04-18T20:16:12.541Z,4.10
2023-04-18T20:18:44.222Z,3.80
2023-04-18T20:21:12.732Z,3.70
2023-04-18T20:23:45.605Z,4.00
2023-04-18T20:26:14.170Z,3.80
2023-04-18T20:28:42.375Z,4.60
2023-04-18T20:31:11.891Z,4.30
2023-04-18T20:33:40.546Z,4.30
2023-04-18T20:36:09.014Z,4.20
2023-04-18T20:38:38.114Z,4.30
2023-04-18T20:41:06.398Z,4.60
2023-04-18T20:43:37.521Z,3.70
2023-04-18T20:46:07.066Z,4.20
2023-04-18T20:48:35.269Z,4.00
2023-04-18T20:51:03.578Z,4.30
2023-04-18T20:53:31.880Z,3.90
2023-04-18T20:56:02.421Z,4.10
2023-04-18T20:58:31.196Z,4.40
2023-04-18T21:00:59.191Z,4.50
2023-04-18T21:03:27.327Z,4.30
2023-04-18T21:05:56.238Z,4.20
2023-04-18T21:08:24.380Z,3.90
2023-04-18T21:10:53.059Z,4.10
2023-04-18T21:13:21.162Z,3.90
2023-04-18T21:15:52.170Z,3.80
2023-04-18T21:18:21.053Z,4.10
2023-04-18T21:20:49.910Z,3.70
2023-04-18T21:23:17.995Z,3.70
2023-04-18T21:25:46.022Z,4.00
2023-04-18T21:28:14.225Z,4.20
2023-04-18T21:30:42.477Z,3.90
2023-04-18T21:33:10.752Z,3.70
2023-04-18T21:35:39.031Z,4.20
2023-04-18T21:38:07.515Z,4.30
2023-04-18T21:40:35.687Z,4.10
2023-04-18T21:43:03.722Z,4.00
2023-04-18T21:45:32.105Z,4.00
2023-04-18T21:48:00.449Z,4.50
2023-04-18T21:50:29.009Z,4.50
2023-04-18T21:52:57.267Z,4.50
2023-04-18T21:55:25.534Z,4.80
2023-04-18T21:57:54.412Z,5.20
2023-04-18T22:00:22.654Z,5.40
2023-04-18T22:02:51.535Z,4.90
2023-04-18T22:05:20.509Z,4.40
2023-04-18T22:07:57.514Z,4.30
2023-04-18T22:10:26.769Z,4.60
2023-04-18T22:12:56.227Z,4.70
2023-04-18T22:15:24.668Z,4.20
2023-04-18T22:17:54.352Z,4.70
2023-04-18T22:20:23.467Z,4.80
2023-04-18T22:22:52.620Z,4.80
2023-04-18T22:25:20.556Z,4.60
2023-04-18T22:27:48.937Z,5.00
2023-04-18T22:30:17.289Z,4.60
2023-04-18T22:32:45.802Z,4.50
2023-04-18T22:35:14.049Z,4.90
2023-04-18T22:37:42.096Z,4.80
2023-04-18T22:40:10.781Z,4.20
2023-04-18T22:42:39.298Z,5.00
2023-04-18T22:45:08.344Z,4.40
2023-04-18T22:47:36.471Z,4.70
2023-04-18T22:50:05.263Z,4.70
2023-04-18T22:52:34.274Z,4.20
2023-04-18T22:55:03.012Z,4.10
2023-04-18T22:57:31.372Z,4.00
2023-04-18T22:59:59.526Z,4.00
2023-04-18T23:02:28.161Z,3.90
2023-04-18T23:04:59.055Z,3.80
2023-04-18T23:07:27.279Z,3.90
2023-04-18T23:09:55.693Z,4.10
2023-04-18T23:12:23.980Z,4.00
2023-04-18T23:14:52.239Z,4.20
2023-04-18T23:17:21.056Z,4.20
2023-04-18T23:19:49.418Z,4.10
2023-04-18T23:22:17.760Z,3.50
2023-04-18T23:24:46.044Z,3.90
2023-04-18T23:27:14.270Z,3.90
2023-04-18T23:29:42.799Z,3.80
2023-04-18T23:32:11.481Z,3.90
2023-04-18T23:34:39.497Z,3.80
2023-04-18T23:37:08.196Z,3.80
2023-04-18T23:39:36.502Z,4.30
2023-04-18T23:42:04.974Z,4.10
2023-04-18T23:44:33.284Z,4.50
2023-04-18T23:47:01.636Z,4.10
2023-04-18T23:49:30.395Z,3.70
2023-04-18T23:51:58.527Z,4.30
2023-04-18T23:54:26.721Z,4.00
2023-04-18T23:56:54.729Z,4.30
2023-04-18T23:59:23.283Z,4.60
